LFBZ 221600Z AUTO 31010KT CAVOK 14/10 Q1034 TEMPO 2000 BR BKN001

ElémentsDécodage
LFBZ Station météo située sur l'aérodrome de BIARRITZ Bayonne-Anglet
221600Z émis le 22 du mois à 16h00 UTC
AUTO Bulletin édité par un automate
31010KT vent du 310°, 10 noeuds
CAVOK Ceiling And Visibility OK
- Visibilité de 10 Km ou plus
- Pas de nuage au-dessous de 1500m ou au-dessous de l'altitude minimale du secteur la plus élevée (si>1500m) et absence de CB
- pas de temps présent significatif
14/10 température 14°C, point de rosée 10°C
 soit une humidité relative de 77%
Q1034 la pression au niveau de la mer (QNH) est de 1034 hPa
TEMPO fluctuation temporaire prévue
2000 visibilité horizontale de 2000 mètres
BR brume
BKN001 nuages morcelés (5/8 à 7/8) à 100 pieds